sensor_id;sensor_type;location;lat;lon;timestamp;pressure;altitude;pressure_sealevel;temperature;humidity
49825;BME280;35714;55.708;37.478;2023-03-25T00:00:54;98218.59;;;5.65;71.50
49825;BME280;35714;55.708;37.478;2023-03-25T00:03:25;98218.59;;;5.65;71.37
49825;BME280;35714;55.708;37.478;2023-03-25T00:05:53;98218.59;;;5.65;71.39
49825;BME280;35714;55.708;37.478;2023-03-25T00:08:19;98213.66;;;5.62;71.55
49825;BME280;35714;55.708;37.478;2023-03-25T00:10:44;98209.94;;;5.63;71.63
49825;BME280;35714;55.708;37.478;2023-03-25T00:13:12;98211.94;;;5.68;71.38
49825;BME280;35714;55.708;37.478;2023-03-25T00:15:42;98212.16;;;5.66;71.44
49825;BME280;35714;55.708;37.478;2023-03-25T00:18:11;98201.28;;;5.61;71.37
49825;BME280;35714;55.708;37.478;2023-03-25T00:20:37;98198.34;;;5.63;71.54
49825;BME280;35714;55.708;37.478;2023-03-25T00:23:06;98189.47;;;5.62;71.10
49825;BME280;35714;55.708;37.478;2023-03-25T00:25:32;98190.03;;;5.64;71.40
49825;BME280;35714;55.708;37.478;2023-03-25T00:27:59;98186.66;;;5.57;71.63
49825;BME280;35714;55.708;37.478;2023-03-25T00:30:24;98178.13;;;5.60;71.52
49825;BME280;35714;55.708;37.478;2023-03-25T00:32:51;98183.06;;;5.63;71.20
49825;BME280;35714;55.708;37.478;2023-03-25T00:35:18;98174.38;;;5.61;71.36
49825;BME280;35714;55.708;37.478;2023-03-25T00:37:45;98174.63;;;5.59;71.26
49825;BME280;35714;55.708;37.478;2023-03-25T00:40:12;98166.19;;;5.56;71.66
49825;BME280;35714;55.708;37.478;2023-03-25T00:42:39;98158.38;;;5.54;71.58
49825;BME280;35714;55.708;37.478;2023-03-25T00:45:13;98157.56;;;5.54;71.58
49825;BME280;35714;55.708;37.478;2023-03-25T00:48:04;98148.91;;;5.52;71.63
49825;BME280;35714;55.708;37.478;2023-03-25T00:50:29;98161.88;;;5.55;71.64
49825;BME280;35714;55.708;37.478;2023-03-25T00:52:55;98150.53;;;5.53;71.72
49825;BME280;35714;55.708;37.478;2023-03-25T00:55:21;98153.34;;;5.58;71.69
49825;BME280;35714;55.708;37.478;2023-03-25T00:57:47;98160.59;;;5.57;71.64
49825;BME280;35714;55.708;37.478;2023-03-25T01:00:16;98157.09;;;5.57;71.66
49825;BME280;35714;55.708;37.478;2023-03-25T01:02:42;98147.38;;;5.56;71.86
49825;BME280;35714;55.708;37.478;2023-03-25T01:05:10;98140.50;;;5.60;72.00
49825;BME280;35714;55.708;37.478;2023-03-25T01:07:38;98140.03;;;5.63;71.84
49825;BME280;35714;55.708;37.478;2023-03-25T01:10:07;98127.16;;;5.65;71.72
49825;BME280;35714;55.708;37.478;2023-03-25T01:12:34;98129.47;;;5.73;71.31
49825;BME280;35714;55.708;37.478;2023-03-25T01:15:00;98140.25;;;5.73;71.64
49825;BME280;35714;55.708;37.478;2023-03-25T01:17:26;98134.38;;;5.76;71.25
49825;BME280;35714;55.708;37.478;2023-03-25T01:19:52;98130.66;;;5.77;71.31
49825;BME280;35714;55.708;37.478;2023-03-25T01:22:17;98130.19;;;5.81;71.25
49825;BME280;35714;55.708;37.478;2023-03-25T01:24:43;98127.41;;;5.75;71.14
49825;BME280;35714;55.708;37.478;2023-03-25T01:27:09;98131.00;;;5.81;71.14
49825;BME280;35714;55.708;37.478;2023-03-25T01:29:34;98123.88;;;5.87;70.83
49825;BME280;35714;55.708;37.478;2023-03-25T01:32:00;98120.09;;;5.88;70.75
49825;BME280;35714;55.708;37.478;2023-03-25T01:34:26;98105.41;;;5.78;70.77
49825;BME280;35714;55.708;37.478;2023-03-25T01:36:52;98113.09;;;5.87;70.79
49825;BME280;35714;55.708;37.478;2023-03-25T01:39:20;98116.38;;;5.89;70.82
49825;BME280;35714;55.708;37.478;2023-03-25T01:41:48;98107.72;;;5.87;70.77
49825;BME280;35714;55.708;37.478;2023-03-25T01:46:42;98096.72;;;5.88;70.91
49825;BME280;35714;55.708;37.478;2023-03-25T01:49:13;98083.94;;;5.95;70.61
49825;BME280;35714;55.708;37.478;2023-03-25T01:51:44;98078.47;;;6.02;70.54
49825;BME280;35714;55.708;37.478;2023-03-25T01:54:13;98063.38;;;6.01;70.33
49825;BME280;35714;55.708;37.478;2023-03-25T01:56:44;98057.44;;;5.99;70.38
49825;BME280;35714;55.708;37.478;2023-03-25T01:59:12;98071.34;;;5.96;70.63
49825;BME280;35714;55.708;37.478;2023-03-25T02:01:38;98060.69;;;6.01;70.77
49825;BME280;35714;55.708;37.478;2023-03-25T02:04:05;98059.06;;;6.00;70.58
49825;BME280;35714;55.708;37.478;2023-03-25T02:06:41;98059.75;;;6.07;70.49
49825;BME280;35714;55.708;37.478;2023-03-25T02:09:07;98056.97;;;6.02;70.24
49825;BME280;35714;55.708;37.478;2023-03-25T02:11:37;98065.38;;;6.06;70.41
49825;BME280;35714;55.708;37.478;2023-03-25T02:14:06;98062.91;;;6.04;70.51
49825;BME280;35714;55.708;37.478;2023-03-25T02:16:44;98061.63;;;6.07;70.28
49825;BME280;35714;55.708;37.478;2023-03-25T02:28:02;98034.34;;;6.03;70.30
49825;BME280;35714;55.708;37.478;2023-03-25T02:43:29;98007.25;;;6.22;70.50
49825;BME280;35714;55.708;37.478;2023-03-25T02:45:58;97991.31;;;6.32;69.96
49825;BME280;35714;55.708;37.478;2023-03-25T02:48:31;98001.06;;;6.38;69.85
49825;BME280;35714;55.708;37.478;2023-03-25T02:51:01;98001.44;;;6.42;69.88
49825;BME280;35714;55.708;37.478;2023-03-25T02:53:32;97998.81;;;6.47;69.77
49825;BME280;35714;55.708;37.478;2023-03-25T02:56:02;97996.06;;;6.59;69.62
49825;BME280;35714;55.708;37.478;2023-03-25T02:58:29;97997.44;;;6.61;69.06
49825;BME280;35714;55.708;37.478;2023-03-25T03:00:56;97990.00;;;6.68;68.84
49825;BME280;35714;55.708;37.478;2023-03-25T03:03:27;97995.16;;;6.70;68.70
49825;BME280;35714;55.708;37.478;2023-03-25T03:05:58;97993.59;;;6.74;68.74
49825;BME280;35714;55.708;37.478;2023-03-25T03:11:29;97981.28;;;6.78;68.49
49825;BME280;35714;55.708;37.478;2023-03-25T03:19:50;97961.50;;;6.90;68.19
49825;BME280;35714;55.708;37.478;2023-03-25T03:28:06;97940.19;;;6.88;68.48
49825;BME280;35714;55.708;37.478;2023-03-25T03:33:13;97932.00;;;7.00;68.36
49825;BME280;35714;55.708;37.478;2023-03-25T03:35:51;97931.19;;;6.99;68.31
49825;BME280;35714;55.708;37.478;2023-03-25T03:38:24;97927.19;;;7.02;68.17
49825;BME280;35714;55.708;37.478;2023-03-25T03:40:55;97920.75;;;7.03;68.11
49825;BME280;35714;55.708;37.478;2023-03-25T03:43:40;97920.56;;;7.10;68.50
49825;BME280;35714;55.708;37.478;2023-03-25T03:46:14;97909.28;;;7.13;67.95
49825;BME280;35714;55.708;37.478;2023-03-25T03:48:46;97904.78;;;7.18;67.85
49825;BME280;35714;55.708;37.478;2023-03-25T03:51:17;97896.69;;;7.18;67.33
49825;BME280;35714;55.708;37.478;2023-03-25T03:53:52;97905.44;;;7.31;67.53
49825;BME280;35714;55.708;37.478;2023-03-25T03:56:53;97900.69;;;7.38;67.31
49825;BME280;35714;55.708;37.478;2023-03-25T03:59:28;97894.16;;;7.34;67.21
49825;BME280;35714;55.708;37.478;2023-03-25T04:02:07;97888.00;;;7.38;67.41
49825;BME280;35714;55.708;37.478;2023-03-25T04:04:39;97888.88;;;7.44;67.27
49825;BME280;35714;55.708;37.478;2023-03-25T04:07:13;97890.53;;;7.45;66.98
49825;BME280;35714;55.708;37.478;2023-03-25T04:12:34;97877.09;;;7.50;67.00
49825;BME280;35714;55.708;37.478;2023-03-25T04:15:02;97877.69;;;7.57;66.80
49825;BME280;35714;55.708;37.478;2023-03-25T04:17:29;97878.81;;;7.62;66.63
49825;BME280;35714;55.708;37.478;2023-03-25T04:19:58;97866.47;;;7.66;66.56
49825;BME280;35714;55.708;37.478;2023-03-25T04:22:24;97858.88;;;7.63;66.25
49825;BME280;35714;55.708;37.478;2023-03-25T04:24:51;97841.38;;;7.65;65.99
49825;BME280;35714;55.708;37.478;2023-03-25T04:27:20;97844.94;;;7.71;66.08
49825;BME280;35714;55.708;37.478;2023-03-25T04:29:49;97846.00;;;7.70;66.08
49825;BME280;35714;55.708;37.478;2023-03-25T04:32:16;97842.78;;;7.73;65.94
49825;BME280;35714;55.708;37.478;2023-03-25T04:34:42;97839.31;;;7.77;65.92
49825;BME280;35714;55.708;37.478;2023-03-25T04:37:07;97842.28;;;7.76;65.84
49825;BME280;35714;55.708;37.478;2023-03-25T04:39:33;97840.44;;;7.82;65.95
49825;BME280;35714;55.708;37.478;2023-03-25T04:41:59;97839.09;;;7.84;65.87
49825;BME280;35714;55.708;37.478;2023-03-25T04:44:31;97828.13;;;7.91;65.82
49825;BME280;35714;55.708;37.478;2023-03-25T04:46:59;97827.28;;;7.90;65.85
49825;BME280;35714;55.708;37.478;2023-03-25T04:49:26;97813.91;;;8.01;65.45
49825;BME280;35714;55.708;37.478;2023-03-25T04:51:52;97812.91;;;8.12;65.19
49825;BME280;35714;55.708;37.478;2023-03-25T04:54:21;97813.69;;;8.12;64.89
49825;BME280;35714;55.708;37.478;2023-03-25T04:56:48;97804.28;;;8.15;65.25
49825;BME280;35714;55.708;37.478;2023-03-25T04:59:16;97797.31;;;8.24;64.71
49825;BME280;35714;55.708;37.478;2023-03-25T05:01:43;97806.00;;;8.31;64.53
49825;BME280;35714;55.708;37.478;2023-03-25T05:04:12;97798.75;;;8.37;64.42
49825;BME280;35714;55.708;37.478;2023-03-25T05:06:40;97801.72;;;8.41;64.19
49825;BME280;35714;55.708;37.478;2023-03-25T05:09:09;97799.94;;;8.52;64.33
49825;BME280;35714;55.708;37.478;2023-03-25T05:11:35;97808.63;;;8.54;63.78
49825;BME280;35714;55.708;37.478;2023-03-25T05:14:05;97810.47;;;8.48;64.02
49825;BME280;35714;55.708;37.478;2023-03-25T05:16:31;97816.16;;;8.52;64.12
49825;BME280;35714;55.708;37.478;2023-03-25T05:18:57;97815.34;;;8.51;64.21
49825;BME280;35714;55.708;37.478;2023-03-25T05:21:22;97811.47;;;8.42;64.35
49825;BME280;35714;55.708;37.478;2023-03-25T05:23:48;97814.75;;;8.44;64.37
49825;BME280;35714;55.708;37.478;2023-03-25T05:26:14;97816.97;;;8.52;64.26
49825;BME280;35714;55.708;37.478;2023-03-25T05:28:40;97816.19;;;8.57;64.48
49825;BME280;35714;55.708;37.478;2023-03-25T05:31:06;97817.81;;;8.63;63.93
49825;BME280;35714;55.708;37.478;2023-03-25T05:33:36;97810.56;;;8.63;63.80
49825;BME280;35714;55.708;37.478;2023-03-25T05:36:10;97797.06;;;8.63;63.90
49825;BME280;35714;55.708;37.478;2023-03-25T05:38:37;97798.66;;;8.64;64.31
49825;BME280;35714;55.708;37.478;2023-03-25T05:41:07;97796.53;;;8.66;64.06
49825;BME280;35714;55.708;37.478;2023-03-25T05:43:36;97801.66;;;8.68;64.11
49825;BME280;35714;55.708;37.478;2023-03-25T05:46:03;97785.13;;;8.59;64.50
49825;BME280;35714;55.708;37.478;2023-03-25T05:48:30;97786.75;;;8.60;64.60
49825;BME280;35714;55.708;37.478;2023-03-25T05:50:59;97792.44;;;8.64;64.66
49825;BME280;35714;55.708;37.478;2023-03-25T05:53:27;97797.91;;;8.74;64.50
49825;BME280;35714;55.708;37.478;2023-03-25T05:55:55;97802.81;;;8.88;64.53
49825;BME280;35714;55.708;37.478;2023-03-25T05:58:21;97801.53;;;9.00;64.30
49825;BME280;35714;55.708;37.478;2023-03-25T06:00:50;97795.63;;;9.14;64.21
49825;BME280;35714;55.708;37.478;2023-03-25T06:03:18;97798.44;;;9.50;63.22
49825;BME280;35714;55.708;37.478;2023-03-25T06:05:45;97791.41;;;9.69;63.02
49825;BME280;35714;55.708;37.478;2023-03-25T06:08:12;97784.13;;;9.90;62.14
49825;BME280;35714;55.708;37.478;2023-03-25T06:10:38;97795.75;;;10.11;61.68
49825;BME280;35714;55.708;37.478;2023-03-25T06:13:04;97794.66;;;10.33;61.41
49825;BME280;35714;55.708;37.478;2023-03-25T06:15:29;97783.00;;;10.43;60.64
49825;BME280;35714;55.708;37.478;2023-03-25T06:17:58;97781.91;;;10.49;60.55
49825;BME280;35714;55.708;37.478;2023-03-25T06:20:24;97778.94;;;10.40;60.44
49825;BME280;35714;55.708;37.478;2023-03-25T06:22:50;97769.44;;;10.43;60.20
49825;BME280;35714;55.708;37.478;2023-03-25T06:25:18;97778.94;;;10.30;60.42
49825;BME280;35714;55.708;37.478;2023-03-25T06:27:47;97775.16;;;10.21;61.05
49825;BME280;35714;55.708;37.478;2023-03-25T06:30:18;97771.38;;;10.11;61.30
49825;BME280;35714;55.708;37.478;2023-03-25T06:32:45;97802.25;;;10.05;61.69
49825;BME280;35714;55.708;37.478;2023-03-25T06:35:15;97773.28;;;9.96;61.97
49825;BME280;35714;55.708;37.478;2023-03-25T06:37:45;97775.19;;;9.85;62.22
49825;BME280;35714;55.708;37.478;2023-03-25T06:40:17;97792.50;;;9.84;62.58
49825;BME280;35714;55.708;37.478;2023-03-25T06:42:43;97785.72;;;9.76;62.94
49825;BME280;35714;55.708;37.478;2023-03-25T06:45:40;97791.94;;;9.66;64.22
49825;BME280;35714;55.708;37.478;2023-03-25T06:48:16;97787.34;;;9.51;65.51
49825;BME280;35714;55.708;37.478;2023-03-25T06:50:42;97777.56;;;9.35;66.50
49825;BME280;35714;55.708;37.478;2023-03-25T06:53:09;97765.38;;;9.22;67.44
49825;BME280;35714;55.708;37.478;2023-03-25T06:55:36;97776.16;;;9.12;68.36
49825;BME280;35714;55.708;37.478;2023-03-25T06:58:01;97768.00;;;9.01;69.39
49825;BME280;35714;55.708;37.478;2023-03-25T07:00:27;97775.78;;;8.88;69.74
49825;BME280;35714;55.708;37.478;2023-03-25T07:02:53;97773.34;;;8.76;70.75
49825;BME280;35714;55.708;37.478;2023-03-25T07:05:19;97776.25;;;8.69;71.31
49825;BME280;35714;55.708;37.478;2023-03-25T07:07:44;97761.66;;;8.65;72.28
49825;BME280;35714;55.708;37.478;2023-03-25T07:10:12;97767.88;;;8.65;72.83
49825;BME280;35714;55.708;37.478;2023-03-25T07:12:38;97771.69;;;8.70;72.98
49825;BME280;35714;55.708;37.478;2023-03-25T07:15:04;97766.22;;;8.64;73.04
49825;BME280;35714;55.708;37.478;2023-03-25T07:17:31;97764.09;;;8.66;73.48
49825;BME280;35714;55.708;37.478;2023-03-25T07:19:57;97776.00;;;8.71;73.28
49825;BME280;35714;55.708;37.478;2023-03-25T07:22:22;97759.00;;;8.75;73.39
49825;BME280;35714;55.708;37.478;2023-03-25T07:24:48;97765.19;;;8.71;73.31
49825;BME280;35714;55.708;37.478;2023-03-25T07:27:14;97760.63;;;8.71;73.49
49825;BME280;35714;55.708;37.478;2023-03-25T07:29:46;97766.28;;;8.75;73.72
49825;BME280;35714;55.708;37.478;2023-03-25T07:32:11;97754.97;;;8.78;74.14
49825;BME280;35714;55.708;37.478;2023-03-25T07:34:37;97759.31;;;8.84;74.21
49825;BME280;35714;55.708;37.478;2023-03-25T07:37:02;97750.66;;;8.87;74.22
49825;BME280;35714;55.708;37.478;2023-03-25T07:39:28;97759.31;;;8.89;73.88
49825;BME280;35714;55.708;37.478;2023-03-25T07:41:54;97747.97;;;8.87;74.07
49825;BME280;35714;55.708;37.478;2023-03-25T07:44:28;97775.78;;;8.88;73.71
49825;BME280;35714;55.708;37.478;2023-03-25T07:46:53;97778.22;;;8.84;74.13
49825;BME280;35714;55.708;37.478;2023-03-25T07:49:19;97752.53;;;8.81;74.13
49825;BME280;35714;55.708;37.478;2023-03-25T07:51:45;97769.31;;;8.83;74.38
49825;BME280;35714;55.708;37.478;2023-03-25T07:54:11;97772.81;;;8.84;74.80
49825;BME280;35714;55.708;37.478;2023-03-25T07:56:36;97771.50;;;8.87;74.73
49825;BME280;35714;55.708;37.478;2023-03-25T07:59:03;97766.91;;;8.92;74.64
49825;BME280;35714;55.708;37.478;2023-03-25T08:01:29;97764.19;;;8.87;74.92
49825;BME280;35714;55.708;37.478;2023-03-25T08:03:55;97765.56;;;8.95;74.88
49825;BME280;35714;55.708;37.478;2023-03-25T08:06:22;97763.13;;;8.98;74.62
49825;BME280;35714;55.708;37.478;2023-03-25T08:08:47;97773.69;;;9.00;74.78
49825;BME280;35714;55.708;37.478;2023-03-25T08:11:13;97765.84;;;8.98;74.53
49825;BME280;35714;55.708;37.478;2023-03-25T08:13:39;97782.59;;;9.00;74.40
49825;BME280;35714;55.708;37.478;2023-03-25T08:16:12;97786.66;;;8.98;74.38
49825;BME280;35714;55.708;37.478;2023-03-25T08:18:38;97802.56;;;8.94;75.01
49825;BME280;35714;55.708;37.478;2023-03-25T08:21:03;97804.75;;;8.92;75.30
49825;BME280;35714;55.708;37.478;2023-03-25T08:23:29;97805.84;;;8.96;75.39
49825;BME280;35714;55.708;37.478;2023-03-25T08:25:56;97800.94;;;8.88;75.38
49825;BME280;35714;55.708;37.478;2023-03-25T08:28:21;97800.38;;;8.86;76.12
49825;BME280;35714;55.708;37.478;2023-03-25T08:30:51;97805.78;;;8.86;75.88
49825;BME280;35714;55.708;37.478;2023-03-25T08:33:24;97803.06;;;8.81;76.45
49825;BME280;35714;55.708;37.478;2023-03-25T08:35:51;97806.28;;;8.73;76.65
49825;BME280;35714;55.708;37.478;2023-03-25T08:38:17;97800.31;;;8.71;77.31
49825;BME280;35714;55.708;37.478;2023-03-25T08:40:43;97790.34;;;8.76;77.44
49825;BME280;35714;55.708;37.478;2023-03-25T08:43:09;97794.94;;;8.76;77.71
49825;BME280;35714;55.708;37.478;2023-03-25T08:45:35;97792.78;;;8.78;77.43
49825;BME280;35714;55.708;37.478;2023-03-25T08:48:02;97797.41;;;8.82;77.75
49825;BME280;35714;55.708;37.478;2023-03-25T08:50:29;97795.81;;;8.87;78.00
49825;BME280;35714;55.708;37.478;2023-03-25T08:52:56;97802.56;;;8.94;77.80
49825;BME280;35714;55.708;37.478;2023-03-25T08:55:24;97811.00;;;8.98;77.66
49825;BME280;35714;55.708;37.478;2023-03-25T08:57:49;97804.47;;;8.94;77.36
49825;BME280;35714;55.708;37.478;2023-03-25T09:00:15;97814.22;;;8.95;77.25
49825;BME280;35714;55.708;37.478;2023-03-25T09:02:42;97811.78;;;8.93;77.09
49825;BME280;35714;55.708;37.478;2023-03-25T09:05:10;97805.84;;;8.96;77.23
49825;BME280;35714;55.708;37.478;2023-03-25T09:07:36;97800.72;;;9.00;77.30
49825;BME280;35714;55.708;37.478;2023-03-25T09:10:02;97801.53;;;9.00;77.37
49825;BME280;35714;55.708;37.478;2023-03-25T09:12:28;97791.28;;;9.02;77.21
49825;BME280;35714;55.708;37.478;2023-03-25T09:14:54;97788.03;;;9.06;77.22
49825;BME280;35714;55.708;37.478;2023-03-25T09:17:20;97797.00;;;9.21;77.23
49825;BME280;35714;55.708;37.478;2023-03-25T09:19:46;97798.91;;;9.26;76.75
49825;BME280;35714;55.708;37.478;2023-03-25T09:22:12;97803.22;;;9.27;76.80
49825;BME280;35714;55.708;37.478;2023-03-25T09:24:38;97792.44;;;9.32;77.08
49825;BME280;35714;55.708;37.478;2023-03-25T09:27:05;97797.84;;;9.32;76.36
49825;BME280;35714;55.708;37.478;2023-03-25T09:29:32;97810.84;;;9.41;75.85
49825;BME280;35714;55.708;37.478;2023-03-25T09:31:58;97802.72;;;9.41;75.86
49825;BME280;35714;55.708;37.478;2023-03-25T09:34:24;97808.69;;;9.43;75.74
49825;BME280;35714;55.708;37.478;2023-03-25T09:36:51;97838.16;;;9.44;75.22
49825;BME280;35714;55.708;37.478;2023-03-25T09:39:17;97828.16;;;9.45;74.72
49825;BME280;35714;55.708;37.478;2023-03-25T09:47:13;97830.31;;;9.48;75.25
49825;BME280;35714;55.708;37.478;2023-03-25T09:49:43;97830.63;;;9.51;75.35
49825;BME280;35714;55.708;37.478;2023-03-25T09:52:15;97834.44;;;9.61;75.42
49825;BME280;35714;55.708;37.478;2023-03-25T09:54:49;97833.09;;;9.68;75.21
49825;BME280;35714;55.708;37.478;2023-03-25T09:57:19;97832.84;;;9.75;75.36
49825;BME280;35714;55.708;37.478;2023-03-25T09:59:49;97828.78;;;9.83;75.40
49825;BME280;35714;55.708;37.478;2023-03-25T10:02:39;97841.50;;;9.92;75.06
49825;BME280;35714;55.708;37.478;2023-03-25T10:21:52;97835.84;;;10.25;72.99
49825;BME280;35714;55.708;37.478;2023-03-25T10:32:41;97833.66;;;10.27;73.60
49825;BME280;35714;55.708;37.478;2023-03-25T10:35:29;97832.28;;;10.29;73.28
49825;BME280;35714;55.708;37.478;2023-03-25T10:38:05;97833.13;;;10.30;73.91
49825;BME280;35714;55.708;37.478;2023-03-25T10:40:42;97828.25;;;10.37;73.37
49825;BME280;35714;55.708;37.478;2023-03-25T10:43:35;97830.41;;;10.40;72.98
49825;BME280;35714;55.708;37.478;2023-03-25T10:48:49;97829.03;;;10.48;73.61
49825;BME280;35714;55.708;37.478;2023-03-25T10:51:17;97841.47;;;10.59;72.79
49825;BME280;35714;55.708;37.478;2023-03-25T10:53:46;97839.03;;;10.58;72.60
49825;BME280;35714;55.708;37.478;2023-03-25T10:56:20;97837.16;;;10.63;72.37
49825;BME280;35714;55.708;37.478;2023-03-25T10:58:51;97842.81;;;10.77;71.79
49825;BME280;35714;55.708;37.478;2023-03-25T11:01:19;97838.50;;;10.71;71.95
49825;BME280;35714;55.708;37.478;2023-03-25T11:03:50;97840.38;;;10.76;71.82
49825;BME280;35714;55.708;37.478;2023-03-25T11:06:23;97838.75;;;10.75;71.79
49825;BME280;35714;55.708;37.478;2023-03-25T11:11:35;97826.28;;;10.74;71.65
49825;BME280;35714;55.708;37.478;2023-03-25T11:14:01;97832.47;;;10.84;71.14
49825;BME280;35714;55.708;37.478;2023-03-25T11:17:00;97843.88;;;10.81;71.42
49825;BME280;35714;55.708;37.478;2023-03-25T11:19:35;97836.31;;;10.73;71.83
49825;BME280;35714;55.708;37.478;2023-03-25T11:22:15;97837.38;;;10.77;71.75
49825;BME280;35714;55.708;37.478;2023-03-25T11:24:46;97827.59;;;10.81;71.34
49825;BME280;35714;55.708;37.478;2023-03-25T11:27:23;97841.69;;;10.89;71.60
49825;BME280;35714;55.708;37.478;2023-03-25T11:29:54;97840.63;;;10.90;71.46
49825;BME280;35714;55.708;37.478;2023-03-25T11:32:39;97829.47;;;10.96;71.25
49825;BME280;35714;55.708;37.478;2023-03-25T11:35:25;97818.88;;;11.00;71.13
49825;BME280;35714;55.708;37.478;2023-03-25T11:37:56;97830.56;;;11.00;71.04
49825;BME280;35714;55.708;37.478;2023-03-25T11:40:22;97820.50;;;11.01;71.34
49825;BME280;35714;55.708;37.478;2023-03-25T11:42:54;97834.03;;;11.06;70.90
49825;BME280;35714;55.708;37.478;2023-03-25T11:45:26;97842.19;;;11.01;70.87
49825;BME280;35714;55.708;37.478;2023-03-25T11:48:07;97847.63;;;11.01;71.00
49825;BME280;35714;55.708;37.478;2023-03-25T11:50:34;97842.50;;;10.94;70.97
49825;BME280;35714;55.708;37.478;2023-03-25T11:53:01;97841.13;;;10.92;71.51
49825;BME280;35714;55.708;37.478;2023-03-25T11:55:30;97829.22;;;10.82;71.75
49825;BME280;35714;55.708;37.478;2023-03-25T11:57:58;97852.25;;;10.90;71.32
49825;BME280;35714;55.708;37.478;2023-03-25T12:03:05;97843.06;;;10.91;71.68
49825;BME280;35714;55.708;37.478;2023-03-25T12:05:31;97841.66;;;10.94;72.00
49825;BME280;35714;55.708;37.478;2023-03-25T12:08:12;97852.53;;;10.99;71.52
49825;BME280;35714;55.708;37.478;2023-03-25T12:11:04;97854.69;;;11.02;71.87
49825;BME280;35714;55.708;37.478;2023-03-25T12:14:11;97847.63;;;11.01;71.55
49825;BME280;35714;55.708;37.478;2023-03-25T12:22:51;97850.81;;;11.18;71.01
49825;BME280;35714;55.708;37.478;2023-03-25T12:25:27;97856.75;;;11.20;70.56
49825;BME280;35714;55.708;37.478;2023-03-25T12:33:26;97867.59;;;11.31;69.83
49825;BME280;35714;55.708;37.478;2023-03-25T12:36:23;97853.78;;;11.27;69.96
49825;BME280;35714;55.708;37.478;2023-03-25T13:06:57;97839.94;;;11.24;69.84
49825;BME280;35714;55.708;37.478;2023-03-25T13:10:05;97847.53;;;11.22;70.01
49825;BME280;35714;55.708;37.478;2023-03-25T13:12:50;97833.97;;;11.22;69.80
49825;BME280;35714;55.708;37.478;2023-03-25T13:18:01;97843.19;;;11.26;69.60
49825;BME280;35714;55.708;37.478;2023-03-25T13:20:35;97850.25;;;11.22;69.94
49825;BME280;35714;55.708;37.478;2023-03-25T13:23:04;97832.34;;;11.20;69.73
49825;BME280;35714;55.708;37.478;2023-03-25T13:25:39;97834.50;;;11.24;69.81
49825;BME280;35714;55.708;37.478;2023-03-25T13:28:17;97830.69;;;11.30;69.88
49825;BME280;35714;55.708;37.478;2023-03-25T13:30:47;97829.03;;;11.34;69.34
49825;BME280;35714;55.708;37.478;2023-03-25T13:33:18;97828.72;;;11.41;68.93
49825;BME280;35714;55.708;37.478;2023-03-25T13:35:49;97845.00;;;11.41;69.04
49825;BME280;35714;55.708;37.478;2023-03-25T13:38:23;97827.91;;;11.40;68.85
49825;BME280;35714;55.708;37.478;2023-03-25T13:40:52;97844.44;;;11.44;68.85
49825;BME280;35714;55.708;37.478;2023-03-25T13:43:20;97851.78;;;11.43;68.98
49825;BME280;35714;55.708;37.478;2023-03-25T13:49:05;97850.16;;;11.42;68.33
49825;BME280;35714;55.708;37.478;2023-03-25T13:51:35;97858.59;;;11.35;68.60
49825;BME280;35714;55.708;37.478;2023-03-25T13:54:18;97855.63;;;11.37;68.62
49825;BME280;35714;55.708;37.478;2023-03-25T14:13:18;97845.84;;;11.36;68.25
49825;BME280;35714;55.708;37.478;2023-03-25T14:16:00;97848.31;;;11.32;68.29
49825;BME280;35714;55.708;37.478;2023-03-25T14:18:28;97848.63;;;11.26;68.24
49825;BME280;35714;55.708;37.478;2023-03-25T14:20:59;97856.47;;;11.22;68.61
49825;BME280;35714;55.708;37.478;2023-03-25T14:23:36;97850.25;;;11.22;68.67
49825;BME280;35714;55.708;37.478;2023-03-25T14:26:03;97852.94;;;11.27;68.44
49825;BME280;35714;55.708;37.478;2023-03-25T14:28:36;97845.91;;;11.20;68.51
49825;BME280;35714;55.708;37.478;2023-03-25T14:36:29;97857.31;;;11.17;68.57
49825;BME280;35714;55.708;37.478;2023-03-25T14:38:57;97854.88;;;11.16;68.53
49825;BME280;35714;55.708;37.478;2023-03-25T14:44:39;97864.44;;;11.08;68.71
49825;BME280;35714;55.708;37.478;2023-03-25T14:49:52;97877.41;;;11.11;68.58
49825;BME280;35714;55.708;37.478;2023-03-25T14:52:47;97866.28;;;11.13;68.74
49825;BME280;35714;55.708;37.478;2023-03-25T14:55:43;97872.56;;;11.08;68.70
49825;BME280;35714;55.708;37.478;2023-03-25T14:58:19;97877.44;;;11.06;68.70
49825;BME280;35714;55.708;37.478;2023-03-25T15:00:57;97867.69;;;11.00;68.60
49825;BME280;35714;55.708;37.478;2023-03-25T15:03:33;97871.78;;;10.97;69.17
49825;BME280;35714;55.708;37.478;2023-03-25T15:06:00;97877.19;;;10.92;69.28
49825;BME280;35714;55.708;37.478;2023-03-25T15:08:34;97878.84;;;10.93;69.22
49825;BME280;35714;55.708;37.478;2023-03-25T15:11:08;97877.47;;;10.96;69.12
49825;BME280;35714;55.708;37.478;2023-03-25T15:13:56;97879.09;;;10.92;69.51
49825;BME280;35714;55.708;37.478;2023-03-25T15:16:36;97869.88;;;10.88;69.66
49825;BME280;35714;55.708;37.478;2023-03-25T15:19:07;97882.63;;;10.87;69.60
49825;BME280;35714;55.708;37.478;2023-03-25T15:24:28;97882.91;;;10.86;69.60
49825;BME280;35714;55.708;37.478;2023-03-25T15:26:59;97882.41;;;10.78;69.68
49825;BME280;35714;55.708;37.478;2023-03-25T15:40:30;97895.41;;;10.71;69.90
49825;BME280;35714;55.708;37.478;2023-03-25T15:54:35;97903.53;;;10.61;70.54
49825;BME280;35714;55.708;37.478;2023-03-25T15:57:28;97899.50;;;10.58;70.67
49825;BME280;35714;55.708;37.478;2023-03-25T16:00:03;97906.81;;;10.53;70.61
49825;BME280;35714;55.708;37.478;2023-03-25T16:05:28;97892.72;;;10.51;70.65
49825;BME280;35714;55.708;37.478;2023-03-25T16:07:55;97886.75;;;10.43;70.67
49825;BME280;35714;55.708;37.478;2023-03-25T16:10:29;97907.34;;;10.50;70.76
49825;BME280;35714;55.708;37.478;2023-03-25T16:13:01;97906.28;;;10.45;70.99
49825;BME280;35714;55.708;37.478;2023-03-25T16:15:30;97916.28;;;10.45;70.87
49825;BME280;35714;55.708;37.478;2023-03-25T16:17:57;97917.66;;;10.42;70.98